createdAt,value
2019-02-27T00:01:00.595Z,95480
2019-02-27T00:05:57.558Z,95483.6
2019-02-27T00:10:55.021Z,95486.9
2019-02-27T00:15:51.964Z,95498.9
2019-02-27T00:20:48.935Z,95496.9
2019-02-27T00:25:46.091Z,95499.7
2019-02-27T00:30:43.190Z,95491.1
2019-02-27T00:35:40.260Z,95488.5
2019-02-27T00:40:39.272Z,95473
2019-02-27T00:45:34.585Z,95468
2019-02-27T00:50:31.760Z,95413.3
2019-02-27T00:55:28.649Z,95464.6
2019-02-27T01:00:25.683Z,95459.9
2019-02-27T01:05:21.952Z,95449.7
2019-02-27T01:10:19.013Z,95446.4
2019-02-27T01:15:15.621Z,95441.3
2019-02-27T01:20:12.739Z,95439.7
2019-02-27T01:25:09.677Z,95444.6
2019-02-27T01:30:06.882Z,95261.3
2019-02-27T01:35:03.960Z,95435.6
2019-02-27T01:40:01.385Z,95445.8
2019-02-27T01:44:58.067Z,95444.6
2019-02-27T01:49:55.209Z,95444.8
2019-02-27T01:54:52.407Z,95443.9
2019-02-27T01:59:50.409Z,95283.7
2019-02-27T02:04:46.675Z,95454.8
2019-02-27T02:09:43.798Z,95455.9
2019-02-27T02:14:41.009Z,95445.3
2019-02-27T02:19:37.732Z,95449.2
2019-02-27T02:24:34.499Z,95443.2
2019-02-27T02:29:31.037Z,95446.7
2019-02-27T02:34:27.809Z,95440.8
2019-02-27T02:39:24.837Z,95336.5
2019-02-27T02:44:22.165Z,95440.1
2019-02-27T02:49:19.060Z,95455.3
2019-02-27T02:54:16.307Z,95461.5
2019-02-27T02:59:13.358Z,95459.4
2019-02-27T03:04:12.753Z,95462.4
2019-02-27T03:09:07.839Z,95453.2
2019-02-27T03:14:04.662Z,95468.3
2019-02-27T03:19:05.320Z,95468.7
2019-02-27T03:23:58.901Z,95401
2019-02-27T03:28:56.203Z,95477.5
2019-02-27T03:33:53.358Z,95447.1
2019-02-27T03:38:50.433Z,95476.9
2019-02-27T03:43:47.529Z,95474.6
2019-02-27T03:48:44.783Z,95378
2019-02-27T03:53:43.112Z,95470.4
2019-02-27T03:58:38.879Z,95472.8
2019-02-27T04:03:35.843Z,95476.1
2019-02-27T04:08:33.043Z,95480.7
2019-02-27T04:13:30.251Z,95407
2019-02-27T04:18:28.350Z,95490.8
2019-02-27T04:23:24.159Z,95487.3
2019-02-27T04:28:21.248Z,95504.1
2019-02-27T04:33:22.820Z,95407.3
2019-02-27T04:38:15.028Z,95502.5
2019-02-27T04:43:12.063Z,95500.7
2019-02-27T04:48:09.284Z,95496.9
2019-02-27T04:53:06.078Z,95507
2019-02-27T04:58:03.253Z,95516
2019-02-27T05:03:00.302Z,95529.7
2019-02-27T05:07:57.288Z,95530
2019-02-27T05:12:54.329Z,95373.4
2019-02-27T05:17:55.466Z,95533.8
2019-02-27T05:22:49.628Z,95535.3
2019-02-27T05:27:47.013Z,95543.3
2019-02-27T05:32:44.711Z,95471.2
2019-02-27T05:37:41.835Z,95551.3
2019-02-27T05:42:39.518Z,95552.6
2019-02-27T05:47:35.805Z,95552.8
2019-02-27T05:52:32.918Z,95561.6
2019-02-27T05:57:31.398Z,95570.2
2019-02-27T06:02:27.041Z,95570.2
2019-02-27T06:07:24.239Z,95579
2019-02-27T06:12:21.495Z,95579
2019-02-27T06:17:18.683Z,95596.8
2019-02-27T06:22:16.267Z,95528.5
2019-02-27T06:27:13.325Z,95609.2
2019-02-27T06:32:12.298Z,95588.8
2019-02-27T06:37:07.420Z,95618.7
2019-02-27T06:42:04.434Z,95628.1
2019-02-27T06:47:01.339Z,95613.3
2019-02-27T06:51:58.273Z,95634
2019-02-27T06:56:55.566Z,95641
2019-02-27T07:01:52.821Z,95641.8
2019-02-27T07:06:50.109Z,95639.7
2019-02-27T07:11:48.903Z,95648.4
2019-02-27T07:16:44.577Z,95621.6
2019-02-27T07:21:41.675Z,95652.1
2019-02-27T07:26:38.582Z,95642.6
2019-02-27T07:31:35.427Z,95669
2019-02-27T07:36:32.801Z,95674.7
2019-02-27T07:41:30.031Z,95667.7
2019-02-27T07:46:27.035Z,95668
2019-02-27T07:51:24.639Z,95598.3
2019-02-27T07:56:21.848Z,95692.8
2019-02-27T08:01:20.912Z,95690.7
2019-02-27T08:06:16.043Z,95697.5
2019-02-27T08:11:14.085Z,95684.2
2019-02-27T08:16:10.451Z,95687.6
2019-02-27T08:21:06.974Z,95689.5
2019-02-27T08:26:04.996Z,95694.3
2019-02-27T08:31:00.893Z,95699
2019-02-27T08:35:58.022Z,95699
2019-02-27T08:40:58.195Z,95706.2
2019-02-27T08:45:52.356Z,95703
2019-02-27T08:50:49.656Z,95710
2019-02-27T08:55:46.741Z,95723.5
2019-02-27T09:00:47.054Z,95725.6
2019-02-27T09:05:40.992Z,95723.8
2019-02-27T09:10:37.974Z,95738.4
2019-02-27T09:15:35.041Z,95725.8
2019-02-27T09:20:32.427Z,95730.2
2019-02-27T09:25:29.357Z,95733.9
2019-02-27T09:30:29.252Z,95733
2019-02-27T09:35:23.746Z,95732.1
2019-02-27T09:40:20.733Z,95736.5
2019-02-27T09:45:17.963Z,95741
2019-02-27T09:50:15.136Z,95749
2019-02-27T09:55:12.128Z,95748.2
2019-02-27T10:00:09.189Z,95739.1
2019-02-27T10:05:04.883Z,95816.4
2019-02-27T10:10:01.839Z,95813.4
2019-02-27T10:14:59.074Z,95744.7
2019-02-27T10:20:01.254Z,95757.5
2019-02-27T10:24:53.506Z,95748.3
2019-02-27T10:29:50.386Z,95745.1
2019-02-27T10:34:47.532Z,95746.8
2019-02-27T10:39:44.574Z,95465.2
2019-02-27T10:44:41.519Z,95746.1
2019-02-27T10:49:38.477Z,95738.2
2019-02-27T10:54:36.988Z,95740.3
2019-02-27T10:59:32.494Z,95799.3
2019-02-27T11:04:29.323Z,95741.5
2019-02-27T11:09:26.587Z,95737.2
2019-02-27T11:14:23.377Z,95736
2019-02-27T11:19:20.691Z,95734.5
2019-02-27T11:24:17.834Z,95734.1
2019-02-27T11:29:15.051Z,95809
2019-02-27T11:34:12.195Z,95667.4
2019-02-27T11:39:09.410Z,95776.1
2019-02-27T11:44:06.336Z,95800.1
2019-02-27T11:49:03.325Z,95788.2
2019-02-27T11:54:00.138Z,95759.3
2019-02-27T11:58:56.798Z,95643.1
2019-02-27T12:03:53.957Z,95661.9
2019-02-27T12:08:51.111Z,95789.8
2019-02-27T12:13:48.404Z,95795.6
2019-02-27T12:18:45.385Z,95725.9
2019-02-27T12:23:44.155Z,95681.6
2019-02-27T12:28:39.359Z,95789.5
2019-02-27T12:33:36.668Z,95790.9
2019-02-27T12:38:33.723Z,95775.9
2019-02-27T12:43:31.194Z,95781.2
2019-02-27T12:48:28.337Z,95679.7
2019-02-27T12:53:26.027Z,95648
2019-02-27T12:58:24.302Z,95777
2019-02-27T13:03:20.448Z,95690.2
2019-02-27T13:08:18.858Z,95781
2019-02-27T13:13:14.646Z,95769.8
2019-02-27T13:18:11.990Z,95760.4
2019-02-27T13:23:09.000Z,95789.5
2019-02-27T13:28:06.516Z,95788.2
2019-02-27T13:33:03.515Z,95821.5
2019-02-27T13:38:00.432Z,95810.4
2019-02-27T13:42:57.666Z,95785.1
2019-02-27T13:47:54.590Z,95822.3
2019-02-27T13:52:51.989Z,95827.7
2019-02-27T13:57:49.175Z,95844.7
2019-02-27T14:02:46.199Z,95851.3
2019-02-27T14:07:44.003Z,95708.6
2019-02-27T14:12:41.470Z,95713.4
2019-02-27T14:17:41.123Z,95704.2
2019-02-27T14:22:40.235Z,95483.1
2019-02-27T14:27:32.892Z,95804
2019-02-27T14:32:30.589Z,95826
2019-02-27T14:37:27.547Z,95816
2019-02-27T14:42:24.777Z,95689.7
2019-02-27T14:47:21.769Z,95739.9
2019-02-27T14:52:18.846Z,95687.4
2019-02-27T14:57:16.679Z,95813.5
2019-02-27T15:02:13.567Z,95835.5
2019-02-27T15:07:11.176Z,95702.8
2019-02-27T15:12:08.619Z,95670
2019-02-27T15:17:05.810Z,95662.3
2019-02-27T15:22:03.556Z,95770.5
2019-02-27T15:27:00.695Z,95825.4
2019-02-27T15:31:57.437Z,95822.7
2019-02-27T15:36:54.847Z,95782.4
2019-02-27T15:41:52.112Z,95757.7
2019-02-27T15:46:49.613Z,95715.9
2019-02-27T15:51:46.790Z,95839.2
2019-02-27T15:56:45.468Z,95837.3
2019-02-27T16:01:40.649Z,95771.6
2019-02-27T16:06:39.664Z,95704.1
2019-02-27T16:11:35.273Z,95837.3
2019-02-27T16:16:32.229Z,95802.2
2019-02-27T16:21:29.101Z,95812.8
2019-02-27T16:26:27.154Z,95844.3
2019-02-27T16:31:23.238Z,95844.9
2019-02-27T16:36:20.543Z,95711.6
2019-02-27T16:41:17.661Z,95819.1
2019-02-27T16:46:14.789Z,95766.5
2019-02-27T16:51:11.818Z,95790.4
2019-02-27T16:56:11.784Z,95784.6
2019-02-27T17:01:06.272Z,95780.6
2019-02-27T17:06:03.379Z,95780.6
2019-02-27T17:11:00.491Z,95791
2019-02-27T17:15:57.394Z,95773.4
2019-02-27T17:20:54.813Z,95786.4
2019-02-27T17:25:52.417Z,95804.4
2019-02-27T17:30:49.500Z,95800
2019-02-27T17:35:46.536Z,95796.1
2019-02-27T17:40:43.815Z,95796.6
2019-02-27T17:45:41.037Z,95800.8
2019-02-27T17:50:38.824Z,95726.2
2019-02-27T17:55:38.097Z,95804.8
2019-02-27T18:00:32.896Z,95802.3
2019-02-27T18:05:30.138Z,95807.9
2019-02-27T18:10:27.199Z,95649.2
2019-02-27T18:15:24.134Z,95805.1
2019-02-27T18:20:24.096Z,95800.8
2019-02-27T18:25:18.406Z,95806.2
2019-02-27T18:30:18.753Z,95737.9
2019-02-27T18:35:12.485Z,95811.9
2019-02-27T18:40:11.131Z,95807.1
2019-02-27T18:45:06.791Z,95805.9
2019-02-27T18:50:03.454Z,95798.1
2019-02-27T18:55:00.477Z,95800.5
2019-02-27T18:59:57.558Z,95799.3
2019-02-27T19:04:54.491Z,95800.2
2019-02-27T19:09:51.223Z,95794
2019-02-27T19:14:48.494Z,95791.7
2019-02-27T19:19:48.233Z,95790.1
2019-02-27T19:24:42.805Z,95789
2019-02-27T19:29:40.151Z,95785.9
2019-02-27T19:34:38.408Z,95026.7
2019-02-27T19:39:35.174Z,95778.8
2019-02-27T19:44:32.301Z,95775.6
2019-02-27T19:49:29.114Z,95776.8
2019-02-27T19:54:26.268Z,95781.9
2019-02-27T19:59:24.849Z,95787.4
2019-02-27T20:04:20.415Z,95706.9
2019-02-27T20:09:20.068Z,95781
2019-02-27T20:14:14.517Z,95773.5
2019-02-27T20:19:11.990Z,95763.7
2019-02-27T20:24:14.367Z,95768
2019-02-27T20:29:05.979Z,95761.4
2019-02-27T20:34:03.182Z,95754.8
2019-02-27T20:39:00.372Z,95751.6
2019-02-27T20:43:57.439Z,95741.1
2019-02-27T20:48:54.896Z,95747.1
2019-02-27T20:53:52.529Z,95774
2019-02-27T20:58:51.906Z,95745.4
2019-02-27T21:03:46.313Z,95747.5
2019-02-27T21:08:43.441Z,95742.8
2019-02-27T21:13:40.396Z,95735.3
2019-02-27T21:18:37.847Z,95732.5
2019-02-27T21:23:34.734Z,95718
2019-02-27T21:28:31.899Z,95721.2
2019-02-27T21:33:28.892Z,95719
2019-02-27T21:38:25.931Z,95804
2019-02-27T21:43:25.545Z,95724.7
2019-02-27T21:48:20.140Z,95716.5
2019-02-27T21:53:17.096Z,95717.3
2019-02-27T21:58:20.177Z,95711.6
2019-02-27T22:03:11.626Z,95700.1
2019-02-27T22:08:08.456Z,95714.6
2019-02-27T22:13:09.190Z,95719.8
2019-02-27T22:18:03.558Z,95725.2
2019-02-27T22:23:00.589Z,95722.3
2019-02-27T22:27:58.492Z,95720.7
2019-02-27T22:32:54.744Z,95720.5
2019-02-27T22:37:52.734Z,95720.8
2019-02-27T22:42:49.331Z,95728.1
2019-02-27T22:47:46.190Z,95728.3
2019-02-27T22:52:43.273Z,95707.4
2019-02-27T22:57:40.352Z,95723.2
2019-02-27T23:02:37.628Z,95722.5
2019-02-27T23:07:33.245Z,95722
2019-02-27T23:12:30.155Z,95716.9
2019-02-27T23:17:26.844Z,95717.5
2019-02-27T23:22:30.189Z,95706.6
2019-02-27T23:27:26.176Z,95707.3
2019-02-27T23:32:22.616Z,95687.1
2019-02-27T23:37:19.844Z,95643.8
2019-02-27T23:42:17.004Z,95718.9
2019-02-27T23:47:14.089Z,95710.9
2019-02-27T23:52:11.173Z,95716.1
2019-02-27T23:57:08.292Z,95714.4
